createdAt,value
2018-04-12T00:00:15.481Z,99964
2018-04-12T00:02:43.720Z,99961
2018-04-12T00:05:11.797Z,99996
2018-04-12T00:07:39.912Z,100012
2018-04-12T00:10:08.227Z,100006
2018-04-12T00:12:36.563Z,100013
2018-04-12T00:15:04.796Z,100007
2018-04-12T00:17:32.891Z,99996
2018-04-12T00:20:01.187Z,100004
2018-04-12T00:22:29.268Z,100001
2018-04-12T00:24:57.479Z,99991
2018-04-12T00:27:25.599Z,99991
2018-04-12T00:29:53.839Z,99981
2018-04-12T00:32:21.897Z,99981
2018-04-12T00:34:50.134Z,99977
2018-04-12T00:37:18.283Z,99963
2018-04-12T00:39:46.699Z,99952
2018-04-12T00:42:14.791Z,99957
2018-04-12T00:44:42.901Z,99953
2018-04-12T00:47:11.170Z,99939
2018-04-12T00:49:39.258Z,99932
2018-04-12T00:52:07.553Z,99933
2018-04-12T00:54:35.649Z,99944
2018-04-12T00:57:04.010Z,99952
2018-04-12T00:59:32.118Z,99954
2018-04-12T01:02:00.531Z,99957
2018-04-12T01:04:28.939Z,99947
2018-04-12T01:06:57.039Z,99937
2018-04-12T01:09:25.413Z,99943
2018-04-12T01:11:53.661Z,99942
2018-04-12T01:14:21.729Z,99944
2018-04-12T01:16:49.887Z,99940
2018-04-12T01:19:17.947Z,99948
2018-04-12T01:21:46.266Z,99947
2018-04-12T01:24:14.381Z,99955
2018-04-12T01:26:42.486Z,99951
2018-04-12T01:29:10.836Z,99939
2018-04-12T01:31:38.949Z,99950
2018-04-12T01:34:07.092Z,99934
2018-04-12T01:36:35.150Z,99935
2018-04-12T01:39:03.305Z,99939
2018-04-12T01:41:31.392Z,99934
2018-04-12T01:43:59.486Z,99940
2018-04-12T01:46:27.916Z,99933
2018-04-12T01:48:55.984Z,99931
2018-04-12T01:51:24.308Z,99932
2018-04-12T01:53:52.600Z,99927
2018-04-12T01:56:20.904Z,99924
2018-04-12T01:58:49.293Z,99935
2018-04-12T02:01:17.594Z,99932
2018-04-12T02:03:45.945Z,99935
2018-04-12T02:06:14.129Z,99933
2018-04-12T02:08:42.850Z,99928
2018-04-12T02:11:11.135Z,99917
2018-04-12T02:13:39.216Z,99925
2018-04-12T02:16:07.431Z,99932
2018-04-12T02:18:35.555Z,99923
2018-04-12T02:21:03.896Z,99920
2018-04-12T02:23:32.087Z,99924
2018-04-12T02:26:00.453Z,99921
2018-04-12T02:28:29.587Z,99908
2018-04-12T02:30:57.738Z,99903
2018-04-12T02:33:25.877Z,99903
2018-04-12T02:35:54.289Z,99892
2018-04-12T02:38:22.577Z,99894
2018-04-12T02:40:50.685Z,99885
2018-04-12T02:43:18.788Z,99893
2018-04-12T02:45:47.183Z,99896
2018-04-12T02:48:15.470Z,99889
2018-04-12T02:50:44.372Z,99887
2018-04-12T02:53:12.516Z,99900
2018-04-12T02:55:40.641Z,99896
2018-04-12T02:58:09.081Z,99877
2018-04-12T03:00:37.391Z,99888
2018-04-12T03:03:05.473Z,99877
2018-04-12T03:05:33.718Z,99888
2018-04-12T03:08:02.033Z,99888
2018-04-12T03:10:30.770Z,99889
2018-04-12T03:12:59.202Z,99882
2018-04-12T03:15:27.910Z,99881
2018-04-12T03:17:56.194Z,99880
2018-04-12T03:20:24.547Z,99875
2018-04-12T03:22:53.857Z,99866
2018-04-12T03:25:22.269Z,99874
2018-04-12T03:27:50.517Z,99858
2018-04-12T03:30:18.623Z,99862
2018-04-12T03:32:46.702Z,99856
2018-04-12T03:35:15.179Z,99846
2018-04-12T03:37:43.598Z,99847
2018-04-12T03:40:11.997Z,99844
2018-04-12T03:42:40.202Z,99839
2018-04-12T03:45:08.758Z,99832
2018-04-12T03:47:37.129Z,99840
2018-04-12T03:50:05.315Z,99830
2018-04-12T03:52:33.406Z,99836
2018-04-12T03:55:01.495Z,99838
2018-04-12T03:57:30.137Z,99836
2018-04-12T03:59:58.218Z,99826
2018-04-12T04:02:26.335Z,99832
2018-04-12T04:04:54.458Z,99825
2018-04-12T04:07:22.697Z,99826
2018-04-12T04:09:51.038Z,99826
2018-04-12T04:12:19.153Z,99821
2018-04-12T04:17:59.125Z,99821
2018-04-12T04:20:39.175Z,99810
2018-04-12T04:23:07.290Z,99817
2018-04-12T04:25:35.372Z,99826
2018-04-12T04:28:03.446Z,99819
2018-04-12T04:30:31.627Z,99817
2018-04-12T04:32:59.683Z,99813
2018-04-12T04:35:27.756Z,99809
2018-04-12T04:37:55.961Z,99819
2018-04-12T04:40:24.178Z,99819
2018-04-12T04:42:52.621Z,99808
2018-04-12T04:45:20.713Z,99805
2018-04-12T04:47:49.375Z,99804
2018-04-12T04:50:17.546Z,99804
2018-04-12T04:52:45.696Z,99818
2018-04-12T04:55:14.075Z,99808
2018-04-12T04:57:42.232Z,99809
2018-04-12T05:00:10.391Z,99812
2018-04-12T05:02:41.117Z,99820
2018-04-12T05:05:09.432Z,99818
2018-04-12T05:07:37.570Z,99813
2018-04-12T05:10:05.817Z,99825
2018-04-12T05:12:34.292Z,99826
2018-04-12T05:15:02.686Z,99821
2018-04-12T05:17:30.838Z,99823
2018-04-12T05:19:59.330Z,99818
2018-04-12T05:22:28.373Z,99812
2018-04-12T05:24:57.257Z,99804
2018-04-12T05:27:25.403Z,99809
2018-04-12T05:29:53.741Z,99806
2018-04-12T05:32:21.881Z,99806
2018-04-12T05:34:50.243Z,99804
2018-04-12T05:37:18.897Z,99804
2018-04-12T05:39:47.182Z,99809
2018-04-12T05:42:15.305Z,99804
2018-04-12T05:44:43.703Z,99808
2018-04-12T05:47:11.867Z,99800
2018-04-12T05:49:40.028Z,99805
2018-04-12T05:52:08.223Z,99794
2018-04-12T05:54:36.432Z,99800
2018-04-12T05:57:04.608Z,99802
2018-04-12T05:59:32.712Z,99798
2018-04-12T06:02:01.147Z,99797
2018-04-12T06:04:29.462Z,99794
2018-04-12T06:06:57.821Z,99787
2018-04-12T06:09:26.257Z,99784
2018-04-12T06:11:54.543Z,99788
2018-04-12T06:14:22.946Z,99788
2018-04-12T06:16:51.205Z,99790
2018-04-12T06:19:19.844Z,99792
2018-04-12T06:21:47.922Z,99784
2018-04-12T06:24:16.242Z,99771
2018-04-12T06:26:44.974Z,99788
2018-04-12T06:29:13.370Z,99780
2018-04-12T06:31:41.672Z,99781
2018-04-12T06:34:09.932Z,99764
2018-04-12T06:36:38.138Z,99763
2018-04-12T06:39:06.298Z,99755
2018-04-12T06:41:34.496Z,99744
2018-04-12T06:44:02.856Z,99742
2018-04-12T06:46:31.114Z,99746
2018-04-12T06:48:59.663Z,99743
2018-04-12T06:51:28.147Z,99756
2018-04-12T06:53:56.851Z,99755
2018-04-12T06:56:25.198Z,99754
2018-04-12T06:58:53.636Z,99748
2018-04-12T07:01:22.293Z,99747
2018-04-12T07:03:50.605Z,99743
2018-04-12T07:06:19.079Z,99747
2018-04-12T07:08:47.153Z,99743
2018-04-12T07:11:15.383Z,99740
2018-04-12T07:13:43.890Z,99740
2018-04-12T07:16:12.066Z,99740
2018-04-12T07:18:40.344Z,99734
2018-04-12T07:21:08.740Z,99742
2018-04-12T07:23:37.125Z,99734
2018-04-12T07:26:05.316Z,99737
2018-04-12T07:28:33.833Z,99735
2018-04-12T07:31:02.057Z,99750
2018-04-12T07:33:30.639Z,99741
2018-04-12T07:35:58.977Z,99749
2018-04-12T07:38:27.346Z,99751
2018-04-12T07:40:55.436Z,99760
2018-04-12T07:43:23.801Z,99754
2018-04-12T07:45:52.131Z,99745
2018-04-12T07:48:20.426Z,99738
2018-04-12T07:50:48.680Z,99743
2018-04-12T07:53:16.923Z,99739
2018-04-12T07:55:45.306Z,99734
2018-04-12T07:58:13.775Z,99732
2018-04-12T08:00:42.147Z,99734
2018-04-12T08:03:11.719Z,99732
2018-04-12T08:05:39.871Z,99738
2018-04-12T08:08:08.022Z,99728
2018-04-12T08:10:36.282Z,99732
2018-04-12T08:13:04.677Z,99731
2018-04-12T08:15:33.170Z,99739
2018-04-12T08:18:01.405Z,99736
2018-04-12T08:20:30.128Z,99745
2018-04-12T08:22:58.716Z,99747
2018-04-12T08:25:27.117Z,99742
2018-04-12T08:27:55.216Z,99738
2018-04-12T08:30:23.642Z,99734
2018-04-12T08:32:52.001Z,99726
2018-04-12T08:35:20.698Z,99717
2018-04-12T08:37:49.273Z,99699
2018-04-12T08:40:17.666Z,99695
2018-04-12T08:42:45.847Z,99677
2018-04-12T08:45:14.272Z,99671
2018-04-12T08:47:42.532Z,99662
2018-04-12T08:50:11.019Z,99658
2018-04-12T08:52:39.518Z,99656
2018-04-12T08:55:08.529Z,99649
2018-04-12T08:57:37.005Z,99640
2018-04-12T09:00:05.133Z,99647
2018-04-12T09:02:33.873Z,99648
2018-04-12T09:05:02.760Z,99635
2018-04-12T09:07:31.317Z,99646
2018-04-12T09:09:59.637Z,99638
2018-04-12T09:12:27.897Z,99639
2018-04-12T09:14:56.346Z,99640
2018-04-12T09:17:24.632Z,99636
2018-04-12T09:19:53.020Z,99618
2018-04-12T09:22:21.215Z,99633
2018-04-12T09:24:49.496Z,99637
2018-04-12T09:27:17.626Z,99636
2018-04-12T09:29:45.883Z,99635
2018-04-12T09:32:14.276Z,99627
2018-04-12T09:34:42.989Z,99629
2018-04-12T09:37:11.483Z,99618
2018-04-12T09:39:40.289Z,99619
2018-04-12T09:42:08.827Z,99623
2018-04-12T09:44:37.089Z,99623
2018-04-12T09:47:05.275Z,99624
2018-04-12T09:49:33.956Z,99616
2018-04-12T09:52:02.220Z,99626
2018-04-12T09:54:30.378Z,99625
2018-04-12T09:56:59.046Z,99617
2018-04-12T09:59:27.546Z,99617
2018-04-12T10:02:01.875Z,99623
2018-04-12T10:04:30.050Z,99630
2018-04-12T10:07:04.263Z,99626
2018-04-12T10:09:32.575Z,99618
2018-04-12T10:12:01.055Z,99632
2018-04-12T10:14:29.370Z,99637
2018-04-12T10:16:57.544Z,99643
2018-04-12T10:19:25.770Z,99639
2018-04-12T10:21:54.536Z,99652
2018-04-12T10:24:23.060Z,99645
2018-04-12T10:26:51.311Z,99652
2018-04-12T10:29:19.701Z,99649
2018-04-12T10:31:48.413Z,99647
2018-04-12T10:34:16.936Z,99647
2018-04-12T10:36:45.257Z,99644
2018-04-12T10:39:13.445Z,99643
2018-04-12T10:41:41.783Z,99644
2018-04-12T10:44:09.904Z,99648
2018-04-12T10:46:38.217Z,99662
2018-04-12T10:49:06.359Z,99647
2018-04-12T10:51:34.634Z,99656
2018-04-12T10:54:02.809Z,99654
2018-04-12T10:56:31.267Z,99657
2018-04-12T10:58:59.717Z,99651
2018-04-12T11:01:28.205Z,99648
2018-04-12T11:03:56.962Z,99642
2018-04-12T11:06:25.336Z,99642
2018-04-12T11:08:53.769Z,99632
2018-04-12T11:11:22.166Z,99627
2018-04-12T11:13:50.597Z,99616
2018-04-12T11:16:18.855Z,99612
2018-04-12T11:18:47.442Z,99608
2018-04-12T11:21:15.961Z,99608
2018-04-12T11:23:44.742Z,99607
2018-04-12T11:26:13.212Z,99601
2018-04-12T11:28:41.865Z,99600
2018-04-12T11:31:10.194Z,99596
2018-04-12T11:33:38.313Z,99593
2018-04-12T11:36:06.802Z,99584
2018-04-12T11:38:34.892Z,99598
2018-04-12T11:41:03.594Z,99598
2018-04-12T11:43:32.239Z,99590
2018-04-12T11:46:00.606Z,99585
2018-04-12T11:48:28.972Z,99575
2018-04-12T11:50:57.243Z,99573
2018-04-12T11:53:25.676Z,99592
2018-04-12T11:55:54.364Z,99582
2018-04-12T11:58:23.057Z,99577
2018-04-12T12:00:51.499Z,99565
2018-04-12T12:03:19.864Z,99562
2018-04-12T12:05:48.174Z,99567
2018-04-12T12:08:17.231Z,99548
2018-04-12T12:10:45.473Z,99551
2018-04-12T12:13:13.769Z,99537
2018-04-12T12:15:42.366Z,99547
2018-04-12T12:18:11.090Z,99539
2018-04-12T12:20:39.628Z,99536
2018-04-12T12:23:07.704Z,99532
2018-04-12T12:25:36.253Z,99511
2018-04-12T12:28:04.586Z,99516
2018-04-12T12:30:32.822Z,99521
2018-04-12T12:33:01.312Z,99525
2018-04-12T12:35:29.620Z,99537
2018-04-12T12:37:58.342Z,99522
2018-04-12T12:40:26.720Z,99534
2018-04-12T12:42:55.060Z,99527
2018-04-12T12:45:23.147Z,99508
2018-04-12T12:47:57.238Z,99509
2018-04-12T12:50:25.340Z,99500
2018-04-12T12:52:53.621Z,99489
2018-04-12T12:55:22.304Z,99486
2018-04-12T12:57:50.573Z,99495
2018-04-12T13:00:18.920Z,99492
2018-04-12T13:02:47.180Z,99485
2018-04-12T13:05:15.359Z,99496
2018-04-12T13:07:43.578Z,99482
2018-04-12T13:10:11.899Z,99484
2018-04-12T13:12:40.079Z,99480
2018-04-12T13:15:14.422Z,99482
2018-04-12T13:17:42.822Z,99478
2018-04-12T13:20:12.140Z,99478
2018-04-12T13:22:40.269Z,99472
2018-04-12T13:25:08.365Z,99470
2018-04-12T13:27:36.724Z,99458
2018-04-12T13:30:10.495Z,99464
2018-04-12T13:32:39.024Z,99457
2018-04-12T13:35:12.943Z,99449
2018-04-12T13:37:47.049Z,99442
2018-04-12T13:40:15.424Z,99436
2018-04-12T13:42:43.898Z,99435
2018-04-12T13:45:18.027Z,99440
2018-04-12T13:47:46.496Z,99431
2018-04-12T13:50:14.630Z,99428
2018-04-12T13:52:46.331Z,99420
2018-04-12T13:55:14.763Z,99424
2018-04-12T13:57:43.001Z,99429
2018-04-12T14:00:11.670Z,99433
2018-04-12T14:02:39.831Z,99438
2018-04-12T14:05:07.996Z,99440
2018-04-12T14:07:36.313Z,99445
2018-04-12T14:10:04.523Z,99436
2018-04-12T14:12:32.619Z,99447
2018-04-12T14:15:01.074Z,99444
2018-04-12T14:17:29.577Z,99450
2018-04-12T14:19:57.718Z,99449
2018-04-12T14:22:37.714Z,99448
2018-04-12T14:25:06.310Z,99449
2018-04-12T14:27:34.715Z,99450
2018-04-12T14:30:08.872Z,99441
2018-04-12T14:32:37.217Z,99444
2018-04-12T14:35:05.548Z,99436
2018-04-12T14:37:34.008Z,99434
2018-04-12T14:40:02.385Z,99432
2018-04-12T14:42:30.691Z,99431
2018-04-12T14:44:59.036Z,99429
2018-04-12T14:47:27.532Z,99435
2018-04-12T14:49:55.831Z,99436
2018-04-12T14:52:29.690Z,99427
2018-04-12T14:54:57.804Z,99440
2018-04-12T14:57:26.303Z,99443
2018-04-12T14:59:54.696Z,99450
2018-04-12T15:02:23.192Z,99444
2018-04-12T15:04:57.236Z,99445
2018-04-12T15:07:25.501Z,99447
2018-04-12T15:09:53.725Z,99449
2018-04-12T15:12:28.138Z,99438
2018-04-12T15:14:56.707Z,99433
2018-04-12T15:17:24.971Z,99441
2018-04-12T15:19:53.327Z,99439
2018-04-12T15:22:27.671Z,99444
2018-04-12T15:25:08.142Z,99438
2018-04-12T15:27:42.278Z,99444
2018-04-12T15:30:10.409Z,99461
2018-04-12T15:32:38.892Z,99451
2018-04-12T15:35:07.234Z,99436
2018-04-12T15:37:35.550Z,99438
2018-04-12T15:40:03.891Z,99440
2018-04-12T15:42:32.196Z,99442
2018-04-12T15:45:00.396Z,99435
2018-04-12T15:47:28.875Z,99435
2018-04-12T15:49:57.278Z,99442
2018-04-12T15:52:25.954Z,99438
2018-04-12T15:54:54.449Z,99438
2018-04-12T15:57:22.671Z,99438
2018-04-12T15:59:50.868Z,99433
2018-04-12T16:02:19.197Z,99452
2018-04-12T16:04:53.503Z,99454
2018-04-12T16:07:27.255Z,99454
2018-04-12T16:09:55.662Z,99452
2018-04-12T16:12:24.003Z,99452
2018-04-12T16:14:52.245Z,99446
2018-04-12T16:17:20.372Z,99452
2018-04-12T16:19:48.934Z,99444
2018-04-12T16:22:17.295Z,99446
2018-04-12T16:24:45.823Z,99435
2018-04-12T16:27:19.872Z,99440
2018-04-12T16:29:48.169Z,99444
2018-04-12T16:32:16.382Z,99440
2018-04-12T16:34:55.950Z,99440
2018-04-12T16:37:24.387Z,99442
2018-04-12T16:39:58.995Z,99441
2018-04-12T16:42:33.042Z,99446
2018-04-12T16:45:01.333Z,99448
2018-04-12T16:47:35.441Z,99449
2018-04-12T16:50:03.825Z,99454
2018-04-12T16:52:32.107Z,99448
2018-04-12T16:55:06.338Z,99445
2018-04-12T16:57:46.418Z,99446
2018-04-12T17:00:14.874Z,99459
2018-04-12T17:02:42.976Z,99452
2018-04-12T17:05:11.263Z,99453
2018-04-12T17:07:39.478Z,99452
2018-04-12T17:10:08.197Z,99450
2018-04-12T17:12:36.491Z,99447
2018-04-12T17:15:10.326Z,99450
2018-04-12T17:17:38.797Z,99444
2018-04-12T17:20:07.036Z,99452
2018-04-12T17:22:41.383Z,99445
2018-04-12T17:25:09.578Z,99449
2018-04-12T17:27:37.775Z,99450
2018-04-12T17:30:05.986Z,99450
2018-04-12T17:32:34.222Z,99445
2018-04-12T17:35:02.350Z,99455
2018-04-12T17:37:30.625Z,99444
2018-04-12T17:39:58.969Z,99459
2018-04-12T17:42:27.157Z,99451
2018-04-12T17:44:55.408Z,99455
2018-04-12T17:47:23.579Z,99453
2018-04-12T17:49:57.757Z,99456
2018-04-12T17:52:26.453Z,99464
2018-04-12T17:54:54.725Z,99456
2018-04-12T17:57:28.512Z,99467
2018-04-12T17:59:56.746Z,99471
2018-04-12T18:02:24.801Z,99467
2018-04-12T18:04:52.946Z,99477
2018-04-12T18:07:26.887Z,99475
2018-04-12T18:09:55.219Z,99477
2018-04-12T18:12:23.312Z,99472
2018-04-12T18:14:57.502Z,99471
2018-04-12T18:17:37.387Z,99483
2018-04-12T18:20:17.095Z,99478
2018-04-12T18:22:51.181Z,99486
2018-04-12T18:25:31.072Z,99486
2018-04-12T18:28:05.030Z,99480
2018-04-12T18:30:33.174Z,99475
2018-04-12T18:33:01.273Z,99480
2018-04-12T18:35:29.373Z,99473
2018-04-12T18:38:03.058Z,99475
2018-04-12T18:40:31.357Z,99475
2018-04-12T18:43:05.160Z,99483
2018-04-12T18:45:33.449Z,99489
2018-04-12T18:48:01.542Z,99492
2018-04-12T18:50:29.822Z,99486
2018-04-12T18:53:09.512Z,99495
2018-04-12T18:55:37.979Z,99496
2018-04-12T18:58:06.120Z,99488
2018-04-12T19:00:34.222Z,99498
2018-04-12T19:03:08.138Z,99493
2018-04-12T19:05:42.095Z,99500
2018-04-12T19:08:10.224Z,99495
2018-04-12T19:10:38.357Z,99499
2018-04-12T19:13:06.650Z,99492
2018-04-12T19:15:40.468Z,99505
2018-04-12T19:18:08.764Z,99500
2018-04-12T19:20:37.162Z,99501
2018-04-12T19:23:05.377Z,99501
2018-04-12T19:25:33.586Z,99501
2018-04-12T19:28:01.713Z,99502
2018-04-12T19:30:35.351Z,99500
2018-04-12T19:33:03.644Z,99503
2018-04-12T19:35:37.770Z,99503
2018-04-12T19:38:11.600Z,99497
2018-04-12T19:40:39.840Z,99493
2018-04-12T19:43:19.563Z,99492
2018-04-12T19:45:59.310Z,99490
2018-04-12T19:48:27.641Z,99497
2018-04-12T19:51:01.652Z,99489
2018-04-12T19:53:35.849Z,99478
2018-04-12T19:56:04.210Z,99485
2018-04-12T19:58:32.333Z,99480
2018-04-12T20:01:00.479Z,99476
2018-04-12T20:03:28.633Z,99479
2018-04-12T20:05:56.926Z,99478
2018-04-12T20:08:25.025Z,99471
2018-04-12T20:10:59.458Z,99478
2018-04-12T20:13:29.835Z,99487
2018-04-12T20:16:03.805Z,99480
2018-04-12T20:18:31.952Z,99487
2018-04-12T20:21:05.732Z,99473
2018-04-12T20:23:33.870Z,99476
2018-04-12T20:26:02.183Z,99478
2018-04-12T20:28:30.280Z,99475
2018-04-12T20:30:58.714Z,99475
2018-04-12T20:33:27.080Z,99459
2018-04-12T20:35:55.183Z,99466
2018-04-12T20:38:23.319Z,99463
2018-04-12T20:40:57.447Z,99468
2018-04-12T20:43:25.809Z,99477
2018-04-12T20:45:54.161Z,99490
2018-04-12T20:48:22.524Z,99485
2018-04-12T20:50:56.273Z,99488
2018-04-12T20:53:24.566Z,99496
2018-04-12T20:55:52.646Z,99498
2018-04-12T20:58:26.259Z,99500
2018-04-12T21:00:54.486Z,99503
2018-04-12T21:03:22.704Z,99502
2018-04-12T21:05:50.817Z,99501
2018-04-12T21:08:24.773Z,99497
2018-04-12T21:10:52.845Z,99500
2018-04-12T21:13:21.201Z,99494
2018-04-12T21:15:49.356Z,99488
2018-04-12T21:18:23.175Z,99490
2018-04-12T21:20:56.945Z,99482
2018-04-12T21:23:25.017Z,99487
2018-04-12T21:25:58.926Z,99489
2018-04-12T21:28:27.235Z,99492
2018-04-12T21:31:01.065Z,99493
2018-04-12T21:33:35.150Z,99486
2018-04-12T21:36:03.282Z,99492
2018-04-12T21:38:31.400Z,99485
2018-04-12T21:40:59.693Z,99482
2018-04-12T21:43:33.523Z,99489
2018-04-12T21:46:01.751Z,99485
2018-04-12T21:48:30.158Z,99488
2018-04-12T21:51:10.128Z,99489
2018-04-12T21:53:44.254Z,99488
2018-04-12T21:56:24.384Z,99479
2018-04-12T21:58:58.032Z,99474
2018-04-12T22:01:26.505Z,99468
2018-04-12T22:04:00.844Z,99477
2018-04-12T22:06:40.809Z,99482
2018-04-12T22:09:14.944Z,99508
2018-04-12T22:11:48.550Z,99519
2018-04-12T22:14:17.520Z,99531
2018-04-12T22:16:45.634Z,99546
2018-04-12T22:19:19.718Z,99552
2018-04-12T22:21:53.873Z,99579
2018-04-12T22:24:28.029Z,99586
2018-04-12T22:26:56.297Z,99591
2018-04-12T22:29:24.803Z,99580
2018-04-12T22:31:53.163Z,99572
2018-04-12T22:34:21.570Z,99572
2018-04-12T22:36:49.668Z,99562
2018-04-12T22:39:17.992Z,99551
2018-04-12T22:41:46.365Z,99561
2018-04-12T22:44:14.747Z,99562
2018-04-12T22:46:43.038Z,99569
2018-04-12T22:49:11.270Z,99576
2018-04-12T22:51:39.369Z,99574
2018-04-12T22:54:07.576Z,99571
2018-04-12T22:56:35.989Z,99568
2018-04-12T22:59:15.788Z,99566
2018-04-12T23:01:44.159Z,99576
2018-04-12T23:04:12.439Z,99581
2018-04-12T23:06:40.568Z,99580
2018-04-12T23:09:08.886Z,99578
2018-04-12T23:11:42.881Z,99580
2018-04-12T23:14:10.965Z,99575
2018-04-12T23:16:39.045Z,99572
2018-04-12T23:19:07.129Z,99566
2018-04-12T23:21:35.385Z,99563
2018-04-12T23:24:03.627Z,99556
2018-04-12T23:26:31.844Z,99552
2018-04-12T23:28:59.970Z,99552
2018-04-12T23:31:33.933Z,99556
2018-04-12T23:34:08.108Z,99553
2018-04-12T23:36:36.202Z,99548
2018-04-12T23:39:04.289Z,99561
2018-04-12T23:41:32.587Z,99545
2018-04-12T23:44:00.657Z,99542
2018-04-12T23:46:34.631Z,99550
2018-04-12T23:49:02.717Z,99552
2018-04-12T23:51:30.810Z,99547
2018-04-12T23:54:04.469Z,99541
2018-04-12T23:56:32.691Z,99543
2018-04-12T23:59:06.382Z,99525
